createdAt,value
2019-03-30T00:01:25.317Z,102159.23
2019-03-30T00:03:56.139Z,102153.26
2019-03-30T00:06:26.961Z,102156.51
2019-03-30T00:08:57.669Z,102153.72
2019-03-30T00:11:28.333Z,102153.88
2019-03-30T00:13:59.106Z,102160.88
2019-03-30T00:16:29.850Z,102153.13
2019-03-30T00:19:00.533Z,102151.69
2019-03-30T00:21:31.205Z,102152.26
2019-03-30T00:24:01.909Z,102149.92
2019-03-30T00:26:32.554Z,102150.12
2019-03-30T00:29:08.986Z,102150.06
2019-03-30T00:31:39.666Z,102152.59
2019-03-30T00:34:10.298Z,102140.61
2019-03-30T00:36:40.936Z,102141.97
2019-03-30T00:39:11.608Z,102136.66
2019-03-30T00:41:42.310Z,102139.08
2019-03-30T00:44:13.012Z,102136.19
2019-03-30T00:46:43.645Z,102132.04
2019-03-30T00:49:14.381Z,102129.64
2019-03-30T00:51:45.167Z,102125.76
2019-03-30T00:54:15.840Z,102121.05
2019-03-30T00:56:46.483Z,102126.41
2019-03-30T00:59:17.162Z,102122.52
2019-03-30T01:01:47.790Z,102120.64
2019-03-30T01:04:18.500Z,102119.94
2019-03-30T01:06:49.216Z,102114.67
2019-03-30T01:09:20.206Z,102112.05
2019-03-30T01:11:51.008Z,102116.11
2019-03-30T01:14:21.875Z,102105.34
2019-03-30T01:16:52.817Z,102103.55
2019-03-30T01:19:23.755Z,102102.72
2019-03-30T01:21:56.220Z,102103.89
2019-03-30T01:24:27.462Z,102100.28
2019-03-30T01:26:58.451Z,102102.30
2019-03-30T01:29:29.298Z,102091.44
2019-03-30T01:32:00.196Z,102098.58
2019-03-30T01:34:30.832Z,102086.42
2019-03-30T01:37:01.547Z,102089.14
2019-03-30T01:39:32.299Z,102086.47
2019-03-30T01:42:02.904Z,102088.05
2019-03-30T01:44:33.633Z,102085.24
2019-03-30T01:47:04.269Z,102087.02
2019-03-30T01:49:34.982Z,102083.86
2019-03-30T01:52:05.694Z,102073.02
2019-03-30T01:54:36.521Z,102075.73
2019-03-30T01:57:07.186Z,102070.98
2019-03-30T01:59:37.908Z,102073.48
2019-03-30T02:02:08.496Z,102072.40
2019-03-30T02:04:39.155Z,102071.03
2019-03-30T02:07:09.770Z,102070.86
2019-03-30T02:09:40.423Z,102058.86
2019-03-30T02:12:11.059Z,102056.40
2019-03-30T02:14:41.662Z,102061.30
2019-03-30T02:17:12.230Z,102059.95
2019-03-30T02:19:42.995Z,102054.92
2019-03-30T02:22:16.889Z,102053.51
2019-03-30T02:24:47.626Z,102056.52
2019-03-30T02:27:18.251Z,102048.34
2019-03-30T02:29:48.871Z,102047.34
2019-03-30T02:32:19.472Z,102046.25
2019-03-30T02:34:50.152Z,102050.92
2019-03-30T02:37:20.737Z,102058.97
2019-03-30T02:39:51.386Z,102051.02
2019-03-30T02:42:21.962Z,102047.57
2019-03-30T02:44:52.590Z,102050.40
2019-03-30T02:47:23.281Z,102046.84
2019-03-30T02:49:54.021Z,102048.13
2019-03-30T02:52:24.606Z,102036.94
2019-03-30T02:54:55.418Z,102037.70
2019-03-30T02:57:26.111Z,102039.39
2019-03-30T02:59:56.956Z,102036.85
2019-03-30T03:02:27.672Z,102022.16
2019-03-30T03:04:58.420Z,102020.88
2019-03-30T03:07:29.238Z,102022.41
2019-03-30T03:09:59.918Z,102015.97
2019-03-30T03:12:30.587Z,102010.52
2019-03-30T03:15:02.728Z,102013.51
2019-03-30T03:17:33.475Z,102019.34
2019-03-30T03:20:04.173Z,102022.68
2019-03-30T03:22:34.940Z,102014.70
2019-03-30T03:25:06.039Z,102013.39
2019-03-30T03:27:36.823Z,102014.95
2019-03-30T03:30:08.796Z,102016.84
2019-03-30T03:32:39.486Z,102012.98
2019-03-30T03:35:10.286Z,102004.52
2019-03-30T03:37:45.143Z,102002.23
2019-03-30T03:40:13.519Z,102003.00
2019-03-30T03:42:44.147Z,101999.19
2019-03-30T03:45:14.871Z,101998.27
2019-03-30T03:47:45.514Z,101997.11
2019-03-30T03:50:36.613Z,101996.06
2019-03-30T03:53:07.203Z,101994.12
2019-03-30T03:55:38.436Z,101990.84
2019-03-30T03:58:09.123Z,101987.52
2019-03-30T04:00:40.085Z,101984.48
2019-03-30T04:03:11.743Z,101984.47
2019-03-30T04:05:45.286Z,101983.60
2019-03-30T04:08:15.850Z,101984.92
2019-03-30T04:10:50.265Z,101978.89
2019-03-30T04:13:22.152Z,101974.34
2019-03-30T04:15:52.885Z,101971.82
2019-03-30T04:18:23.512Z,101968.08
2019-03-30T04:20:54.162Z,101963.62
2019-03-30T04:23:24.792Z,101956.45
2019-03-30T04:25:55.469Z,101947.73
2019-03-30T04:28:26.150Z,101945.63
2019-03-30T04:30:56.812Z,101942.73
2019-03-30T04:33:27.380Z,101943.00
2019-03-30T04:35:57.993Z,101940.69
2019-03-30T04:38:28.725Z,101934.72
2019-03-30T04:40:59.302Z,101942.61
2019-03-30T04:43:29.915Z,101938.73
2019-03-30T04:46:00.619Z,101941.72
2019-03-30T04:48:31.226Z,101932.14
2019-03-30T04:51:01.809Z,101932.72
2019-03-30T04:53:32.445Z,101933.73
2019-03-30T04:56:03.035Z,101930.49
2019-03-30T04:58:33.623Z,101920.03
2019-03-30T05:01:04.246Z,101924.30
2019-03-30T05:03:34.815Z,101919.75
2019-03-30T05:06:05.415Z,101918.87
2019-03-30T05:08:35.971Z,101921.98
2019-03-30T05:11:06.618Z,101913.16
2019-03-30T05:13:37.288Z,101908.39
2019-03-30T05:16:07.917Z,101909.20
2019-03-30T05:18:38.601Z,101912.24
2019-03-30T05:21:09.219Z,101909.39
2019-03-30T05:23:39.819Z,101906.52
2019-03-30T05:26:10.523Z,101902.66
2019-03-30T05:28:41.120Z,101909.09
2019-03-30T05:31:11.737Z,101916.95
2019-03-30T05:33:42.392Z,101910.34
2019-03-30T05:36:16.069Z,101911.75
2019-03-30T05:38:46.665Z,101917.05
2019-03-30T05:41:17.385Z,101918.59
2019-03-30T05:43:48.107Z,101913.57
2019-03-30T05:46:18.765Z,101916.62
2019-03-30T05:48:49.336Z,101915.71
2019-03-30T05:51:19.891Z,101919.19
2019-03-30T05:53:50.425Z,101917.39
2019-03-30T05:56:21.011Z,101921.16
2019-03-30T05:58:51.551Z,101913.50
2019-03-30T06:01:22.163Z,101907.16
2019-03-30T06:03:52.737Z,101905.21
2019-03-30T06:06:23.975Z,101903.20
2019-03-30T06:08:54.563Z,101908.50
2019-03-30T06:11:25.147Z,101901.64
2019-03-30T06:13:55.718Z,101904.85
2019-03-30T06:16:26.297Z,101903.38
2019-03-30T06:18:57.001Z,101902.92
2019-03-30T06:21:27.562Z,101906.62
2019-03-30T06:23:58.106Z,101900.02
2019-03-30T06:26:28.722Z,101896.90
2019-03-30T06:28:59.252Z,101899.64
2019-03-30T06:31:29.870Z,101896.64
2019-03-30T06:34:00.436Z,101902.19
2019-03-30T06:36:31.024Z,101899.84
2019-03-30T06:39:01.585Z,101901.64
2019-03-30T06:41:32.167Z,101902.59
2019-03-30T06:44:02.737Z,101899.27
2019-03-30T06:46:33.311Z,101899.71
2019-03-30T06:49:04.004Z,101902.72
2019-03-30T06:51:34.575Z,101897.25
2019-03-30T06:54:05.208Z,101904.34
2019-03-30T06:56:35.805Z,101900.86
2019-03-30T06:59:06.427Z,101901.15
2019-03-30T07:01:37.035Z,101900.44
2019-03-30T07:04:11.055Z,101900.30
2019-03-30T07:06:40.577Z,101900.43
2019-03-30T07:09:11.144Z,101903.23
2019-03-30T07:11:43.810Z,101896.97
2019-03-30T07:14:14.479Z,101894.11
2019-03-30T07:16:45.656Z,101893.48
2019-03-30T07:19:16.929Z,101884.98
2019-03-30T07:21:47.570Z,101891.68
2019-03-30T07:24:19.868Z,101888.28
2019-03-30T07:26:50.446Z,101892.83
2019-03-30T07:29:21.144Z,101886.67
2019-03-30T07:31:51.778Z,101891.61
2019-03-30T07:34:22.356Z,101889.59
2019-03-30T07:36:52.966Z,101884.28
2019-03-30T07:39:26.606Z,101882.83
2019-03-30T07:41:57.256Z,101887.03
2019-03-30T07:44:27.936Z,101885.55
2019-03-30T07:46:58.534Z,101879.74
2019-03-30T07:49:29.168Z,101879.14
2019-03-30T07:51:59.856Z,101884.69
2019-03-30T07:54:30.470Z,101871.44
2019-03-30T07:57:06.199Z,101872.89
2019-03-30T07:59:33.389Z,101870.27
2019-03-30T08:02:03.996Z,101873.14
2019-03-30T08:04:34.635Z,101866.38
2019-03-30T08:07:05.772Z,101864.24
2019-03-30T08:09:37.324Z,101867.31
2019-03-30T08:12:08.037Z,101865.64
2019-03-30T08:14:38.644Z,101858.93
2019-03-30T08:17:09.268Z,101864.08
2019-03-30T08:19:39.883Z,101858.45
2019-03-30T08:22:10.502Z,101858.88
2019-03-30T08:24:41.101Z,101855.77
2019-03-30T08:27:11.978Z,101846.67
2019-03-30T08:29:44.938Z,101850.16
2019-03-30T08:32:15.598Z,101843.78
2019-03-30T08:34:46.207Z,101838.36
2019-03-30T08:37:18.553Z,101834.20
2019-03-30T08:39:49.344Z,101825.70
2019-03-30T08:42:20.614Z,101821.84
2019-03-30T08:44:51.230Z,101825.48
2019-03-30T08:47:21.857Z,101829.33
2019-03-30T08:49:52.497Z,101828.12
2019-03-30T08:52:23.135Z,101823.79
2019-03-30T08:54:53.906Z,101821.98
2019-03-30T08:57:24.560Z,101813.33
2019-03-30T08:59:55.566Z,101807.13
2019-03-30T09:02:26.190Z,101807.81
2019-03-30T09:04:56.786Z,101805.03
2019-03-30T09:07:27.413Z,101803.26
2019-03-30T09:09:58.139Z,101796.38
2019-03-30T09:12:28.739Z,101795.94
2019-03-30T09:14:59.353Z,101786.00
2019-03-30T09:17:29.947Z,101788.02
2019-03-30T09:20:00.722Z,101790.45
2019-03-30T09:22:31.297Z,101782.22
2019-03-30T09:25:03.129Z,101778.50
2019-03-30T09:27:33.755Z,101775.41
2019-03-30T09:30:05.937Z,101766.00
2019-03-30T09:32:36.544Z,101765.84
2019-03-30T09:35:07.370Z,101758.36
2019-03-30T09:37:37.959Z,101758.83
2019-03-30T09:40:08.947Z,101753.44
2019-03-30T09:42:39.517Z,101756.12
2019-03-30T09:45:10.234Z,101750.98
2019-03-30T09:47:40.835Z,101738.84
2019-03-30T09:50:11.453Z,101739.64
2019-03-30T09:52:42.073Z,101737.08
2019-03-30T09:55:12.725Z,101734.64
2019-03-30T09:57:43.325Z,101734.64
2019-03-30T10:00:14.083Z,101733.64
2019-03-30T10:02:44.669Z,101726.24
2019-03-30T10:05:15.278Z,101723.05
2019-03-30T10:07:45.849Z,101725.36
2019-03-30T10:10:16.485Z,101721.86
2019-03-30T10:12:47.051Z,101712.41
2019-03-30T10:15:17.669Z,101717.77
2019-03-30T10:17:48.282Z,101722.39
2019-03-30T10:20:18.878Z,101715.58
2019-03-30T10:22:49.454Z,101707.45
2019-03-30T10:25:20.068Z,101711.24
2019-03-30T10:27:50.649Z,101712.66
2019-03-30T10:30:21.272Z,101704.20
2019-03-30T10:32:51.835Z,101706.19
2019-03-30T10:35:22.424Z,101705.38
2019-03-30T10:37:53.022Z,101695.95
2019-03-30T10:40:23.656Z,101701.52
2019-03-30T10:42:54.198Z,101697.86
2019-03-30T10:45:24.798Z,101692.25
2019-03-30T10:47:55.375Z,101688.50
2019-03-30T10:50:26.033Z,101679.83
2019-03-30T10:52:56.601Z,101686.45
2019-03-30T10:55:27.211Z,101682.97
2019-03-30T10:57:58.743Z,101674.17
2019-03-30T11:00:40.989Z,101675.32
2019-03-30T11:03:11.533Z,101677.72
2019-03-30T11:05:42.159Z,101674.30
2019-03-30T11:08:12.723Z,101673.06
2019-03-30T11:10:43.339Z,101650.56
2019-03-30T11:13:14.009Z,101664.13
2019-03-30T11:15:44.696Z,101666.42
2019-03-30T11:18:15.246Z,101661.70
2019-03-30T11:21:07.845Z,101656.72
2019-03-30T11:23:38.543Z,101653.69
2019-03-30T11:26:10.120Z,101649.91
2019-03-30T11:28:42.197Z,101651.83
2019-03-30T11:31:13.150Z,101642.11
2019-03-30T11:33:43.725Z,101641.39
2019-03-30T11:36:14.424Z,101645.33
2019-03-30T11:38:45.011Z,101637.84
2019-03-30T11:41:15.619Z,101628.67
2019-03-30T11:43:46.183Z,101636.33
2019-03-30T11:46:16.799Z,101638.69
2019-03-30T11:48:47.419Z,101627.82
2019-03-30T11:51:17.999Z,101617.34
2019-03-30T11:53:48.762Z,101613.39
2019-03-30T11:56:19.481Z,101607.73
2019-03-30T11:58:50.753Z,101606.41
2019-03-30T12:01:21.882Z,101606.20
2019-03-30T12:03:52.591Z,101603.64
2019-03-30T12:06:23.173Z,101595.23
2019-03-30T12:08:53.733Z,101587.08
2019-03-30T12:11:24.334Z,101584.78
2019-03-30T12:13:57.222Z,101580.62
2019-03-30T12:16:27.803Z,101578.32
2019-03-30T12:18:58.521Z,101576.55
2019-03-30T12:22:45.837Z,101572.37
2019-03-30T12:25:18.093Z,101573.42
2019-03-30T12:27:48.684Z,101566.98
2019-03-30T12:30:19.241Z,101557.91
2019-03-30T12:32:49.822Z,101556.47
2019-03-30T12:35:20.385Z,101549.28
2019-03-30T12:37:50.969Z,101543.09
2019-03-30T12:40:21.531Z,101537.31
2019-03-30T12:42:52.126Z,101538.09
2019-03-30T12:45:22.741Z,101535.38
2019-03-30T12:47:53.313Z,101528.77
2019-03-30T12:50:23.858Z,101528.48
2019-03-30T12:52:54.464Z,101530.49
2019-03-30T12:55:25.064Z,101529.94
2019-03-30T12:57:55.650Z,101529.11
2019-03-30T13:00:26.205Z,101522.66
2019-03-30T13:02:56.769Z,101511.77
2019-03-30T13:05:27.322Z,101513.12
2019-03-30T13:07:57.904Z,101503.94
2019-03-30T13:10:28.459Z,101503.17
2019-03-30T13:12:59.039Z,101500.45
2019-03-30T13:15:29.596Z,101499.15
2019-03-30T13:18:00.174Z,101502.36
2019-03-30T13:20:30.724Z,101490.38
2019-03-30T13:23:01.328Z,101480.05
2019-03-30T13:25:31.894Z,101485.69
2019-03-30T13:28:02.478Z,101477.45
2019-03-30T13:30:33.049Z,101486.89
2019-03-30T13:33:03.633Z,101486.28
2019-03-30T13:35:34.218Z,101471.41
2019-03-30T13:38:04.799Z,101472.41
2019-03-30T13:40:35.384Z,101468.49
2019-03-30T13:43:06.422Z,101454.05
2019-03-30T13:45:36.993Z,101467.19
2019-03-30T13:48:09.428Z,101461.13
2019-03-30T13:50:40.003Z,101457.88
2019-03-30T13:53:10.579Z,101455.22
2019-03-30T13:55:41.112Z,101446.56
2019-03-30T13:58:11.715Z,101445.92
2019-03-30T14:00:42.272Z,101459.29
2019-03-30T14:03:12.837Z,101447.07
2019-03-30T14:05:43.931Z,101442.11
2019-03-30T14:08:14.510Z,101445.12
2019-03-30T14:10:45.103Z,101440.33
2019-03-30T14:13:22.948Z,101439.00
2019-03-30T14:15:53.605Z,101438.98
2019-03-30T14:18:24.264Z,101432.73
2019-03-30T14:20:54.785Z,101435.13
2019-03-30T14:23:25.376Z,101435.48
2019-03-30T14:25:55.940Z,101440.59
2019-03-30T14:28:26.517Z,101440.36
2019-03-30T14:30:57.063Z,101440.65
2019-03-30T14:33:27.684Z,101439.50
2019-03-30T14:35:58.263Z,101435.19
2019-03-30T14:38:28.869Z,101423.74
2019-03-30T14:40:59.423Z,101429.34
2019-03-30T14:43:30.041Z,101420.55
2019-03-30T14:46:00.615Z,101425.20
2019-03-30T14:48:31.238Z,101423.30
2019-03-30T14:51:01.808Z,101415.39
2019-03-30T14:53:32.400Z,101417.09
2019-03-30T14:56:03.045Z,101413.02
2019-03-30T14:58:33.692Z,101407.83
2019-03-30T15:01:04.224Z,101413.30
2019-03-30T15:03:34.843Z,101410.55
2019-03-30T15:06:07.021Z,101408.94
2019-03-30T15:08:37.812Z,101399.46
2019-03-30T15:11:08.389Z,101404.94
2019-03-30T15:13:38.992Z,101401.60
2019-03-30T15:16:09.565Z,101397.50
2019-03-30T15:18:40.148Z,101402.67
2019-03-30T15:21:10.731Z,101399.07
2019-03-30T15:23:41.332Z,101404.50
2019-03-30T15:26:11.891Z,101400.10
2019-03-30T15:28:42.909Z,101398.73
2019-03-30T15:31:13.605Z,101393.59
2019-03-30T15:33:44.221Z,101389.05
2019-03-30T15:36:14.794Z,101386.87
2019-03-30T15:38:45.370Z,101380.34
2019-03-30T15:41:17.085Z,101390.13
2019-03-30T15:43:47.713Z,101396.55
2019-03-30T15:46:29.031Z,101384.92
2019-03-30T15:49:00.903Z,101390.13
2019-03-30T15:51:32.113Z,101388.23
2019-03-30T15:54:09.120Z,101383.39
2019-03-30T15:56:39.959Z,101386.64
2019-03-30T15:59:10.536Z,101380.41
2019-03-30T16:01:41.164Z,101373.89
2019-03-30T16:04:11.763Z,101380.68
2019-03-30T16:06:42.358Z,101371.70
2019-03-30T16:09:12.928Z,101377.70
2019-03-30T16:11:43.599Z,101378.48
2019-03-30T16:14:14.176Z,101387.19
2019-03-30T16:16:44.762Z,101377.95
2019-03-30T16:19:15.326Z,101384.73
2019-03-30T16:21:49.470Z,101375.76
2019-03-30T16:24:18.214Z,101382.29
2019-03-30T16:26:48.797Z,101379.86
2019-03-30T16:29:19.362Z,101376.34
2019-03-30T16:31:49.971Z,101383.38
2019-03-30T16:34:20.548Z,101386.10
2019-03-30T16:36:51.141Z,101391.52
2019-03-30T16:39:21.709Z,101385.53
2019-03-30T16:41:52.320Z,101384.41
2019-03-30T16:44:22.847Z,101387.65
2019-03-30T16:46:53.452Z,101387.88
2019-03-30T16:49:24.081Z,101386.52
2019-03-30T16:51:54.726Z,101386.78
2019-03-30T16:54:25.344Z,101391.94
2019-03-30T16:56:55.934Z,101386.50
2019-03-30T16:59:26.538Z,101386.25
2019-03-30T17:01:57.073Z,101381.89
2019-03-30T17:04:29.554Z,101381.89
2019-03-30T17:07:00.021Z,101384.06
2019-03-30T17:09:30.623Z,101377.83
2019-03-30T17:12:02.978Z,101380.27
2019-03-30T17:14:33.530Z,101381.87
2019-03-30T17:17:04.148Z,101382.67
2019-03-30T17:19:34.787Z,101377.52
2019-03-30T17:22:05.390Z,101382.42
2019-03-30T17:24:35.944Z,101379.08
2019-03-30T17:27:06.512Z,101379.41
2019-03-30T17:29:37.087Z,101382.04
2019-03-30T17:32:07.674Z,101377.13
2019-03-30T17:34:38.250Z,101382.25
2019-03-30T17:37:08.868Z,101377.34
2019-03-30T17:39:39.423Z,101378.66
2019-03-30T17:42:10.204Z,101374.84
2019-03-30T17:44:40.754Z,101385.18
2019-03-30T17:47:11.376Z,101379.42
2019-03-30T17:49:41.965Z,101383.50
2019-03-30T17:52:12.629Z,101385.11
2019-03-30T17:54:43.250Z,101385.30
2019-03-30T17:57:17.332Z,101385.03
2019-03-30T17:59:46.198Z,101387.69
2019-03-30T18:02:17.208Z,101393.93
2019-03-30T18:04:47.816Z,101392.02
2019-03-30T18:07:18.381Z,101391.70
2019-03-30T18:09:48.970Z,101397.91
2019-03-30T18:12:20.566Z,101401.06
2019-03-30T18:14:51.322Z,101396.63
2019-03-30T18:17:21.918Z,101391.48
2019-03-30T18:19:52.487Z,101398.17
2019-03-30T18:22:23.104Z,101396.93
2019-03-30T18:24:53.673Z,101400.02
2019-03-30T18:27:24.913Z,101398.28
2019-03-30T18:29:55.511Z,101403.85
2019-03-30T18:32:26.734Z,101403.85
2019-03-30T18:34:57.591Z,101409.77
2019-03-30T18:37:29.724Z,101406.68
2019-03-30T18:40:03.595Z,101412.47
2019-03-30T18:42:34.285Z,101411.88
2019-03-30T18:45:06.416Z,101417.59
2019-03-30T18:47:37.014Z,101432.56
2019-03-30T18:50:08.198Z,101439.01
2019-03-30T18:52:38.808Z,101447.67
2019-03-30T18:55:11.007Z,101450.05
2019-03-30T18:57:41.588Z,101456.66
2019-03-30T19:00:15.527Z,101465.70
2019-03-30T19:02:46.125Z,101459.37
2019-03-30T19:05:16.839Z,101462.41
2019-03-30T19:07:47.417Z,101460.66
2019-03-30T19:10:20.926Z,101469.72
2019-03-30T19:12:51.512Z,101471.02
2019-03-30T19:15:22.218Z,101476.06
2019-03-30T19:17:52.823Z,101476.89
2019-03-30T19:20:23.410Z,101478.28
2019-03-30T19:22:53.981Z,101483.42
2019-03-30T19:25:24.577Z,101494.17
2019-03-30T19:27:55.229Z,101488.34
2019-03-30T19:30:25.893Z,101483.48
2019-03-30T19:32:56.564Z,101491.47
2019-03-30T19:35:27.223Z,101491.70
2019-03-30T19:37:57.755Z,101491.92
2019-03-30T19:40:28.432Z,101486.61
2019-03-30T19:42:58.997Z,101489.00
2019-03-30T19:45:29.955Z,101489.11
2019-03-30T19:48:00.524Z,101488.17
2019-03-30T19:50:31.205Z,101486.24
2019-03-30T19:53:01.777Z,101493.67
2019-03-30T19:55:32.475Z,101492.97
2019-03-30T19:58:03.065Z,101495.23
2019-03-30T20:00:34.179Z,101494.95
2019-03-30T20:03:04.785Z,101500.67
2019-03-30T20:05:35.953Z,101499.99
2019-03-30T20:08:12.401Z,101497.94
2019-03-30T20:10:38.843Z,101506.09
2019-03-30T20:13:09.885Z,101496.47
2019-03-30T20:15:40.504Z,101498.62
2019-03-30T20:18:11.141Z,101511.98
2019-03-30T20:20:42.202Z,101512.10
2019-03-30T20:23:12.761Z,101512.53
2019-03-30T20:25:43.426Z,101509.08
2019-03-30T20:28:14.000Z,101520.93
2019-03-30T20:30:44.614Z,101516.27
2019-03-30T20:33:15.205Z,101519.16
2019-03-30T20:35:45.830Z,101528.02
2019-03-30T20:38:16.425Z,101509.58
2019-03-30T20:40:47.057Z,101513.00
2019-03-30T20:43:17.627Z,101515.91
2019-03-30T20:45:48.233Z,101513.09
2019-03-30T20:48:18.827Z,101521.66
2019-03-30T20:50:49.487Z,101519.60
2019-03-30T20:53:20.079Z,101519.23
2019-03-30T20:55:50.733Z,101519.43
2019-03-30T20:58:21.359Z,101522.98
2019-03-30T21:00:51.962Z,101523.88
2019-03-30T21:03:22.568Z,101520.71
2019-03-30T21:05:53.251Z,101527.28
2019-03-30T21:08:23.901Z,101529.84
2019-03-30T21:10:54.540Z,101529.98
2019-03-30T21:13:25.123Z,101531.13
2019-03-30T21:15:55.719Z,101537.98
2019-03-30T21:18:26.299Z,101533.94
2019-03-30T21:20:56.993Z,101538.98
2019-03-30T21:23:27.563Z,101534.36
2019-03-30T21:25:58.159Z,101538.16
2019-03-30T21:28:28.776Z,101540.52
2019-03-30T21:30:59.381Z,101544.72
2019-03-30T21:33:29.936Z,101540.14
2019-03-30T21:36:01.294Z,101545.11
2019-03-30T21:38:31.982Z,101551.09
2019-03-30T21:41:02.552Z,101548.50
2019-03-30T21:43:33.114Z,101545.42
2019-03-30T21:46:03.678Z,101545.48
2019-03-30T21:48:34.260Z,101551.31
2019-03-30T21:51:04.951Z,101556.37
2019-03-30T21:53:35.520Z,101552.09
2019-03-30T21:56:06.177Z,101553.18
2019-03-30T21:58:36.729Z,101546.27
2019-03-30T22:01:07.327Z,101549.45
2019-03-30T22:03:37.955Z,101547.15
2019-03-30T22:06:08.704Z,101551.14
2019-03-30T22:08:39.679Z,101550.02
2019-03-30T22:11:10.400Z,101549.80
2019-03-30T22:13:40.981Z,101548.96
2019-03-30T22:16:11.593Z,101545.03
2019-03-30T22:18:42.186Z,101554.06
2019-03-30T22:21:12.795Z,101554.12
2019-03-30T22:23:43.346Z,101554.47
2019-03-30T22:26:13.933Z,101561.28
2019-03-30T22:28:44.541Z,101550.62
2019-03-30T22:31:15.107Z,101552.41
2019-03-30T22:33:45.734Z,101551.81
2019-03-30T22:36:24.015Z,101559.00
2019-03-30T22:38:54.610Z,101558.77
2019-03-30T22:41:25.172Z,101571.16
2019-03-30T22:43:55.822Z,101566.88
2019-03-30T22:46:26.367Z,101565.69
2019-03-30T22:48:56.931Z,101571.36
2019-03-30T22:51:27.584Z,101575.28
2019-03-30T22:53:58.172Z,101569.00
2019-03-30T22:56:28.803Z,101569.95
2019-03-30T22:58:59.407Z,101570.34
2019-03-30T23:01:29.971Z,101572.13
2019-03-30T23:04:00.613Z,101571.18
2019-03-30T23:06:31.238Z,101578.01
2019-03-30T23:09:01.884Z,101573.66
2019-03-30T23:11:33.129Z,101580.45
2019-03-30T23:14:03.770Z,101582.37
2019-03-30T23:16:34.389Z,101574.59
2019-03-30T23:19:04.995Z,101580.42
2019-03-30T23:21:35.590Z,101584.30
2019-03-30T23:24:06.172Z,101589.91
2019-03-30T23:26:36.922Z,101588.59
2019-03-30T23:29:07.588Z,101588.59
2019-03-30T23:31:38.198Z,101584.84
2019-03-30T23:34:08.818Z,101588.81
2019-03-30T23:36:39.388Z,101579.54
2019-03-30T23:39:10.097Z,101582.37
2019-03-30T23:41:41.270Z,101582.67
2019-03-30T23:44:11.878Z,101582.67
2019-03-30T23:46:42.517Z,101706.55
2019-03-30T23:49:13.234Z,101586.41
2019-03-30T23:51:43.877Z,101592.53
2019-03-30T23:54:16.353Z,101592.53
2019-03-30T23:56:46.941Z,101588.34
2019-03-30T23:59:17.758Z,101593.23
